Lynden Pindling International Airport
MYNN : now visible

Airfield :











YOU CAN JOIN US ON...

 
LOGIN :

Register | Disclaimer

   EN    FR    IT 

 









Legend :    VFR   Marginal VFR   IFR   Intensive IFR   Very Intensive IFR
Visi :
Ceiling :
>= 8 km
>= 3000ft
5 to 8 km
1000 to 3000 ft
1500m to 5 km
500 to 1000 ft
800 to 1500m
200 to 500 ft
< 800m
< 200 ft
Symbols :   Thunderstorms  Fog  Heavy snow  Heavy precipitations  Wind > 20 kt







- Airport Elevation : 16 ft
- IATA code : NAS


MYNN - Lynden Pindling International

CURRENT METAR :
  • 250200Z 21003KT CAVOK 28/25 A2998

EXPIRED METARs :
  • 250100Z 19004KT CAVOK 28/25 A2997
  • 260000Z 20004KT 9999 FEW022 SCT100 BKN200 28/25 A2996

TAF MYNN
Valid from the 26 at 00:00 until the 27 at 00:00 UTC


252230Z 2600/2624 22008KT 9999 SCT018 BKN200
PROB30
TEMPO 2609/2615 8000 SHRA FEW016CB BKN018 BKN200
No reported NOTAMs for that airfield.



MET'MAP, your aeronautical weather chart ! - Copyright ORBIFLY December 2007 - Disclaimer

ORBIFLY MET'MAP TEAM :

Programming & Development : Alexandra Zaïnal
Concept & Development : Baudouin d'Aumeries
Co-Development & Prog : Marc-Olivier Méhu
Technical & hardware support : Manuel Goepfert

Contact : metmap@orbifly.com




SOURCES & CREDITS :

   NOAA       Earth
Advisory